Time;durP1;ratioP1;P1;durP2;ratioP2;P2;SDS_P1;SDS_P2;PMS_P1;PMS_P2;Temp;Humidity;BMP_temperature;BMP_pressure;BME280_temperature;BME280_humidity;BME280_pressure;Samples;Min_cycle;Max_cycle;Signal;HPM_P1;HPM_P2
2022/01/10 00:00:19;;;;;;;39.60;6.25;;;;;;;;;;5055555;28;20044;-83
2022/01/10 00:02:46;;;;;;;16.40;3.42;;;;;;;;;;5056890;28;20036;-84
2022/01/10 00:05:12;;;;;;;36.05;4.88;;;;;;;;;;5035357;28;20040;-84
2022/01/10 00:07:39;;;;;;;21.20;4.68;;;;;;;;;;5051564;28;20244;-84
2022/01/10 00:10:06;;;;;;;24.27;4.78;;;;;;;;;;5050589;28;20092;-83
2022/01/10 00:12:33;;;;;;;29.02;5.45;;;;;;;;;;5056737;28;20091;-84
2022/01/10 00:14:59;;;;;;;18.10;4.15;;;;;;;;;;5053907;28;20285;-83
2022/01/10 00:17:25;;;;;;;24.73;4.38;;;;;;;;;;5051165;28;20467;-83
2022/01/10 00:19:51;;;;;;;19.20;3.40;;;;;;;;;;5038944;28;20040;-83
2022/01/10 00:22:18;;;;;;;24.92;4.32;;;;;;;;;;5036077;28;20367;-83
2022/01/10 00:24:44;;;;;;;20.55;3.85;;;;;;;;;;5052341;28;20922;-83
2022/01/10 00:27:10;;;;;;;18.02;4.00;;;;;;;;;;5037727;28;20345;-86
2022/01/10 00:29:37;;;;;;;18.20;4.63;;;;;;;;;;5039344;28;20048;-86
2022/01/10 00:32:03;;;;;;;15.77;3.35;;;;;;;;;;5036688;28;20154;-83
2022/01/10 00:34:29;;;;;;;18.00;3.78;;;;;;;;;;5056221;28;20289;-83
2022/01/10 00:36:55;;;;;;;19.88;4.90;;;;;;;;;;5026664;28;20029;-83
2022/01/10 00:39:22;;;;;;;19.48;4.90;;;;;;;;;;5049995;28;20064;-83
2022/01/10 00:41:48;;;;;;;24.33;4.22;;;;;;;;;;5050831;28;20067;-83
2022/01/10 00:44:14;;;;;;;23.60;5.07;;;;;;;;;;5053396;28;20037;-83
2022/01/10 00:46:41;;;;;;;35.28;6.57;;;;;;;;;;5038758;28;20086;-83
2022/01/10 00:49:08;;;;;;;25.05;5.53;;;;;;;;;;5050088;28;20033;-84
2022/01/10 00:51:34;;;;;;;14.95;2.63;;;;;;;;;;5038452;28;20359;-83
2022/01/10 00:54:00;;;;;;;9.57;2.47;;;;;;;;;;5035783;28;20136;-83
2022/01/10 00:56:27;;;;;;;18.58;4.20;;;;;;;;;;5035917;28;20028;-83
2022/01/10 00:58:53;;;;;;;23.67;4.47;;;;;;;;;;5037216;28;20128;-83
2022/01/10 01:01:19;;;;;;;27.80;4.65;;;;;;;;;;5051256;28;20071;-83
2022/01/10 01:03:46;;;;;;;20.55;5.15;;;;;;;;;;5052765;28;20037;-82
2022/01/10 01:06:13;;;;;;;18.88;3.83;;;;;;;;;;5036633;28;20815;-83
2022/01/10 01:08:40;;;;;;;17.52;3.45;;;;;;;;;;5035858;28;20032;-82
2022/01/10 01:11:47;;;;;;;20.92;2.97;;;;;;;;;;5038938;28;20119;-83
2022/01/10 01:14:11;;;;;;;13.88;3.10;;;;;;;;;;5048743;28;20045;-83
2022/01/10 01:24:21;;;;;;;10.60;2.15;;;;;;;;;;5050943;28;20200;-82
2022/01/10 01:26:49;;;;;;;8.63;2.80;;;;;;;;;;5035829;28;20041;-82
2022/01/10 01:29:21;;;;;;;11.57;2.88;;;;;;;;;;5053680;28;20098;-82
2022/01/10 01:31:47;;;;;;;4.97;3.05;;;;;;;;;;5047259;28;20342;-82
2022/01/10 01:34:17;;;;;;;11.82;3.78;;;0.30;99.90;;;;;;5053582;28;20194;-82
2022/01/10 01:36:50;;;;;;;7.00;1.60;;;0.30;99.90;;;;;;5047638;28;20116;-82
2022/01/10 01:39:21;;;;;;;13.63;3.55;;;;;;;;;;5038477;28;20265;-82
2022/01/10 01:41:54;;;;;;;6.40;2.38;;;;;;;;;;5032720;28;20116;-83
2022/01/10 01:44:20;;;;;;;14.52;3.22;;;;;;;;;;5035663;28;20024;-82
2022/01/10 01:46:47;;;;;;;11.95;2.95;;;;;;;;;;5051633;28;20017;-82
2022/01/10 01:49:14;;;;;;;20.52;4.43;;;;;;;;;;5035043;28;20044;-82
2022/01/10 01:51:40;;;;;;;17.20;4.10;;;;;;;;;;5037898;28;20021;-81
2022/01/10 01:54:07;;;;;;;7.35;2.28;;;;;;;;;;5051534;28;20131;-81
2022/01/10 01:56:34;;;;;;;14.35;4.32;;;;;;;;;;5050920;28;20049;-81
2022/01/10 01:59:00;;;;;;;13.10;3.83;;;;;;;;;;5051426;28;20092;-82
2022/01/10 02:01:28;;;;;;;18.63;4.60;;;;;;;;;;5034882;28;20314;-81
2022/01/10 02:03:54;;;;;;;20.55;4.90;;;;;;;;;;5031638;28;20031;-81
2022/01/10 02:06:20;;;;;;;15.88;4.53;;;;;;;;;;5036412;28;20258;-82
2022/01/10 02:08:47;;;;;;;18.75;5.32;;;;;;;;;;5049942;28;20123;-81
2022/01/10 02:11:14;;;;;;;284.80;27.55;;;;;;;;;;5057349;28;20048;-81
2022/01/10 02:13:41;;;;;;;25.60;6.25;;;;;;;;;;5039262;28;20171;-81
2022/01/10 02:16:10;;;;;;;23.65;6.07;;;;;;;;;;5037267;28;20047;-81
2022/01/10 02:18:37;;;;;;;25.63;6.95;;;;;;;;;;5058521;28;20349;-81
2022/01/10 02:21:05;;;;;;;21.95;5.05;;;;;;;;;;5038377;28;20120;-81
2022/01/10 02:23:32;;;;;;;18.77;3.70;;;-0.50;99.90;;;;;;5038868;28;20109;-82
2022/01/10 02:25:59;;;;;;;15.30;3.80;;;;;;;;;;5053289;28;20041;-82
2022/01/10 02:28:26;;;;;;;12.05;2.90;;;;;;;;;;5056067;28;20037;-81
2022/01/10 02:30:56;;;;;;;10.13;2.88;;;;;;;;;;5040165;28;20037;-81
2022/01/10 02:33:23;;;;;;;9.15;2.42;;;;;;;;;;5056396;28;20051;-81
2022/01/10 02:36:34;;;;;;;12.73;3.85;;;0.20;99.90;;;;;;5055297;28;20138;-81
2022/01/10 02:38:36;;;;;;;11.45;2.00;;;;;;;;;;5046231;28;20331;-81
2022/01/10 02:41:03;;;;;;;11.18;2.60;;;;;;;;;;5055342;28;20044;-81
2022/01/10 02:43:29;;;;;;;8.20;2.05;;;;;;;;;;5042626;28;20338;-81
2022/01/10 02:45:56;;;;;;;8.38;2.03;;;;;;;;;;5054162;28;20020;-81
2022/01/10 02:48:22;;;;;;;14.23;4.18;;;;;;;;;;5040409;28;20051;-81
2022/01/10 02:50:49;;;;;;;19.13;5.25;;;;;;;;;;5051417;28;20132;-81
2022/01/10 02:53:15;;;;;;;17.80;3.08;;;;;;;;;;5054913;28;20177;-81
2022/01/10 02:55:41;;;;;;;10.75;2.67;;;;;;;;;;5038537;28;20029;-81
2022/01/10 02:58:07;;;;;;;12.95;2.10;;;;;;;;;;5051273;28;20097;-81
2022/01/10 03:00:33;;;;;;;11.60;3.38;;;;;;;;;;5052749;28;20024;-81
2022/01/10 03:03:06;;;;;;;12.27;2.58;;;;;;;;;;5036929;28;20025;-81
2022/01/10 03:05:32;;;;;;;13.85;5.32;;;;;;;;;;5055623;28;20041;-81
2022/01/10 03:07:59;;;;;;;21.08;4.97;;;-0.10;99.90;;;;;;5040834;28;20040;-81
2022/01/10 03:10:25;;;;;;;19.08;4.78;;;;;;;;;;5057987;28;20060;-81
2022/01/10 03:12:52;;;;;;;23.73;4.95;;;-0.10;99.90;;;;;;5041322;28;20033;-81
2022/01/10 03:15:18;;;;;;;17.58;4.25;;;;;;;;;;5055367;28;20021;-81
2022/01/10 03:17:44;;;;;;;27.33;5.70;;;;;;;;;;5057067;28;20028;-81
2022/01/10 03:20:11;;;;;;;12.45;2.95;;;;;;;;;;5056657;28;20064;-81
2022/01/10 03:22:37;;;;;;;13.65;4.65;;;;;;;;;;5054180;28;20017;-81
2022/01/10 03:25:05;;;;;;;8.18;3.65;;;;;;;;;;5056106;28;20037;-82
2022/01/10 03:27:31;;;;;;;15.02;4.10;;;;;;;;;;5054258;28;20044;-82
2022/01/10 03:29:57;;;;;;;20.73;5.15;;;;;;;;;;5047265;28;20624;-82
2022/01/10 03:32:24;;;;;;;21.13;6.32;;;;;;;;;;5036323;28;20068;-82
2022/01/10 03:34:50;;;;;;;17.05;5.38;;;;;;;;;;5056820;28;20032;-82
2022/01/10 03:37:17;;;;;;;20.85;7.22;;;;;;;;;;5040860;28;20021;-82
2022/01/10 03:39:43;;;;;;;23.08;7.38;;;;;;;;;;5053736;28;20082;-82
2022/01/10 03:42:09;;;;;;;19.80;5.85;;;;;;;;;;5037888;28;20029;-82
2022/01/10 03:44:36;;;;;;;25.30;6.78;;;;;;;;;;5037934;28;20206;-82
2022/01/10 03:47:02;;;;;;;8.75;3.80;;;;;;;;;;5038771;28;20273;-82
2022/01/10 03:49:29;;;;;;;8.18;2.50;;;;;;;;;;5054854;28;20036;-81
2022/01/10 03:51:55;;;;;;;10.32;4.00;;;;;;;;;;5055268;28;20353;-81
2022/01/10 03:54:21;;;;;;;26.35;6.78;;;;;;;;;;5056669;28;20159;-80
2022/01/10 03:56:48;;;;;;;29.85;8.07;;;;;;;;;;5051600;28;20025;-81
2022/01/10 03:59:14;;;;;;;23.27;7.10;;;1.40;99.90;;;;;;5037416;28;20039;-82
2022/01/10 04:01:40;;;;;;;26.33;7.90;;;;;;;;;;5055732;28;20307;-81
2022/01/10 04:04:07;;;;;;;28.48;6.88;;;;;;;;;;5053255;28;20060;-81
2022/01/10 04:06:34;;;;;;;30.30;6.95;;;;;;;;;;5050258;28;20040;-81
2022/01/10 04:09:00;;;;;;;25.55;6.40;;;;;;;;;;5055094;28;20029;-81
2022/01/10 04:11:27;;;;;;;20.45;6.13;;;;;;;;;;5049845;28;20100;-81
2022/01/10 04:13:53;;;;;;;24.75;5.57;;;;;;;;;;5049113;28;20045;-81
2022/01/10 04:16:19;;;;;;;10.90;3.60;;;;;;;;;;5051152;28;20048;-81
2022/01/10 04:18:45;;;;;;;35.83;9.02;;;;;;;;;;5052813;28;20239;-81
2022/01/10 04:21:12;;;;;;;30.20;7.55;;;;;;;;;;5050666;28;20056;-81
2022/01/10 04:23:38;;;;;;;28.58;7.78;;;;;;;;;;5053775;28;20040;-80
2022/01/10 04:26:04;;;;;;;32.35;8.68;;;;;;;;;;5035663;28;20033;-80
2022/01/10 04:28:30;;;;;;;36.67;8.90;;;;;;;;;;5055054;28;20020;-80
2022/01/10 04:30:57;;;;;;;31.52;9.13;;;;;;;;;;5051050;28;20267;-80
2022/01/10 04:33:28;;;;;;;24.95;8.13;;;;;;;;;;5039166;28;20045;-81
2022/01/10 04:35:55;;;;;;;31.98;9.35;;;;;;;;;;5050253;28;20092;-80
2022/01/10 04:38:21;;;;;;;26.92;9.13;;;0.50;99.90;;;;;;5048516;28;20462;-81
2022/01/10 04:40:47;;;;;;;28.70;7.90;;;;;;;;;;5035430;28;20297;-81
2022/01/10 04:43:14;;;;;;;25.67;8.45;;;;;;;;;;5035982;28;20078;-82
2022/01/10 04:45:42;;;;;;;35.20;8.13;;;;;;;;;;5055299;28;20039;-81
2022/01/10 04:48:08;;;;;;;31.77;9.10;;;;;;;;;;5037684;28;20111;-81
2022/01/10 04:53:20;;;;;;;39.72;11.68;;;;;;;;;;5049655;28;20317;-81
2022/01/10 04:55:46;;;;;;;54.30;14.73;;;;;;;;;;5054529;28;20182;-81
2022/01/10 04:58:12;;;;;;;75.50;15.10;;;;;;;;;;5050159;28;20053;-81
2022/01/10 05:00:38;;;;;;;100.07;16.77;;;;;;;;;;5055563;28;20048;-80
2022/01/10 05:03:04;;;;;;;76.78;16.45;;;;;;;;;;5033309;28;20024;-82
2022/01/10 05:05:30;;;;;;;93.05;15.80;;;0.40;99.90;;;;;;5050146;28;20186;-81
2022/01/10 05:07:57;;;;;;;193.70;20.00;;;;;;;;;;5037407;28;20695;-81
2022/01/10 05:10:23;;;;;;;112.78;12.95;;;;;;;;;;5039002;28;20032;-81
2022/01/10 05:12:49;;;;;;;144.35;12.88;;;;;;;;;;5031845;28;20033;-81
2022/01/10 05:15:15;;;;;;;206.52;15.20;;;;;;;;;;5038305;28;20120;-81
2022/01/10 05:17:43;;;;;;;247.90;21.23;;;;;;;;;;5049867;28;20017;-81
2022/01/10 05:20:10;;;;;;;19.20;5.70;;;;;;;;;;5054843;28;20053;-81
2022/01/10 05:22:36;;;;;;;13.18;3.92;;;;;;;;;;5036926;28;20020;-81
2022/01/10 05:25:02;;;;;;;8.88;3.47;;;;;;;;;;5036017;28;20182;-81
2022/01/10 05:27:28;;;;;;;4.40;2.17;;;;;;;;;;5048396;28;20175;-81
2022/01/10 05:29:55;;;;;;;7.18;3.15;;;;;;;;;;5053440;28;20300;-81
2022/01/10 05:32:21;;;;;;;9.65;4.38;;;;;;;;;;5054030;28;20163;-81
2022/01/10 05:34:47;;;;;;;5.05;2.80;;;;;;;;;;5033940;28;20272;-81
2022/01/10 05:37:13;;;;;;;3.72;1.88;;;;;;;;;;5047109;28;20323;-82
2022/01/10 05:39:39;;;;;;;7.72;2.70;;;;;;;;;;5036922;28;20114;-81
2022/01/10 05:42:06;;;;;;;11.55;3.88;;;;;;;;;;5035848;28;20029;-81
2022/01/10 05:44:32;;;;;;;28.55;7.40;;;;;;;;;;5050083;28;20096;-81
2022/01/10 05:46:59;;;;;;;13.13;3.97;;;;;;;;;;5042482;28;20033;-81
2022/01/10 05:49:32;;;;;;;10.98;3.67;;;;;;;;;;5051656;28;20040;-82
2022/01/10 05:51:58;;;;;;;28.92;7.85;;;;;;;;;;5036033;28;20049;-82
2022/01/10 05:54:24;;;;;;;23.75;7.97;;;;;;;;;;5045492;28;20029;-82
2022/01/10 05:56:52;;;;;;;36.05;11.27;;;;;;;;;;5054641;28;20032;-81
2022/01/10 05:59:18;;;;;;;37.10;12.35;;;;;;;;;;5036220;28;20293;-81
2022/01/10 06:01:44;;;;;;;49.47;13.88;;;;;;;;;;5052901;28;20056;-82
2022/01/10 06:04:11;;;;;;;44.55;12.65;;;;;;;;;;5047872;28;20178;-81
2022/01/10 06:06:37;;;;;;;44.53;11.73;;;;;;;;;;5053627;28;20296;-81
2022/01/10 06:09:04;;;;;;;55.30;13.52;;;;;;;;;;5050681;28;20021;-82
2022/01/10 06:11:30;;;;;;;28.73;8.45;;;;;;;;;;5034013;28;20220;-82
2022/01/10 06:13:56;;;;;;;10.32;4.07;;;;;;;;;;5051652;28;20034;-82
2022/01/10 06:16:23;;;;;;;29.77;9.20;;;;;;;;;;5036591;28;20037;-82
2022/01/10 06:18:49;;;;;;;22.67;6.22;;;;;;;;;;5034611;28;20147;-82
2022/01/10 06:21:15;;;;;;;6.10;3.63;;;;;;;;;;5049574;28;20028;-82
2022/01/10 06:23:41;;;;;;;19.77;7.18;;;;;;;;;;5053967;28;20052;-82
2022/01/10 06:26:08;;;;;;;16.52;5.55;;;;;;;;;;5033788;28;20217;-82
2022/01/10 06:28:34;;;;;;;4.45;2.45;;;;;;;;;;5050460;28;20025;-82
2022/01/10 06:31:00;;;;;;;8.30;4.10;;;;;;;;;;5052450;28;20313;-82
2022/01/10 06:33:26;;;;;;;5.72;2.58;;;;;;;;;;5054737;28;20024;-82
2022/01/10 06:35:52;;;;;;;12.45;4.13;;;;;;;;;;5046585;28;20033;-81
2022/01/10 06:38:19;;;;;;;6.35;2.85;;;;;;;;;;5045525;28;20080;-82
2022/01/10 06:40:45;;;;;;;14.10;4.45;;;-0.40;1.00;;;;;;5028534;28;20295;-81
2022/01/10 06:43:11;;;;;;;5.60;3.13;;;;;;;;;;5031113;28;20037;-81
2022/01/10 06:45:37;;;;;;;6.22;2.83;;;;;;;;;;5050432;28;20021;-82
2022/01/10 06:48:04;;;;;;;8.65;3.33;;;;;;;;;;5051561;28;20313;-82
2022/01/10 06:50:30;;;;;;;8.57;3.22;;;;;;;;;;5037440;28;20349;-81
2022/01/10 06:52:57;;;;;;;4.57;2.72;;;;;;;;;;5049759;28;20075;-81
2022/01/10 06:55:23;;;;;;;9.25;4.25;;;;;;;;;;5050168;28;20049;-81
2022/01/10 06:57:50;;;;;;;8.98;4.28;;;;;;;;;;5051495;28;20037;-82
2022/01/10 07:00:16;;;;;;;27.25;6.90;;;;;;;;;;5067499;28;20040;-81
2022/01/10 07:02:43;;;;;;;130.68;12.65;;;;;;;;;;5054706;28;20045;-81
2022/01/10 07:05:10;;;;;;;276.85;24.60;;;;;;;;;;5040474;28;20300;-80
2022/01/10 07:07:36;;;;;;;222.50;22.60;;;;;;;;;;5040573;28;20285;-81
2022/01/10 07:10:02;;;;;;;210.52;17.75;;;;;;;;;;5036825;28;20072;-82
2022/01/10 07:12:28;;;;;;;273.80;23.75;;;;;;;;;;5057074;28;20126;-81
2022/01/10 07:14:54;;;;;;;345.35;27.17;;;;;;;;;;5055841;28;20049;-81
2022/01/10 07:17:20;;;;;;;258.10;25.27;;;;;;;;;;5036788;28;20156;-81
2022/01/10 07:19:46;;;;;;;253.93;22.13;;;;;;;;;;5046566;28;20029;-81
2022/01/10 07:22:12;;;;;;;230.35;24.73;;;;;;;;;;5039325;28;20041;-81
2022/01/10 07:24:39;;;;;;;155.20;15.52;;;-1.40;99.90;;;;;;5056266;28;20025;-81
2022/01/10 07:27:06;;;;;;;284.67;24.10;;;;;;;;;;5070735;28;20172;-81
2022/01/10 07:29:32;;;;;;;322.35;29.75;;;;;;;;;;5052322;28;20630;-82
2022/01/10 07:31:58;;;;;;;336.88;25.17;;;;;;;;;;5052920;28;20032;-82
2022/01/10 07:34:24;;;;;;;331.85;27.92;;;;;;;;;;5040335;28;20085;-81
2022/01/10 07:36:50;;;;;;;319.20;23.65;;;;;;;;;;5048594;28;20033;-81
2022/01/10 07:39:16;;;;;;;304.85;23.58;;;;;;;;;;5050917;28;20028;-81
2022/01/10 07:41:43;;;;;;;319.55;26.63;;;;;;;;;;5039341;28;21132;-83
2022/01/10 07:44:09;;;;;;;228.50;19.95;;;;;;;;;;5038130;28;20033;-82
2022/01/10 07:46:35;;;;;;;225.07;19.23;;;;;;;;;;5050606;28;20048;-81
2022/01/10 07:49:01;;;;;;;208.90;21.35;;;;;;;;;;5056663;28;20294;-83
2022/01/10 07:51:27;;;;;;;279.42;25.73;;;;;;;;;;5040792;28;20029;-82
2022/01/10 07:53:54;;;;;;;325.77;27.65;;;;;;;;;;5036835;28;20231;-83
2022/01/10 07:56:20;;;;;;;219.40;20.17;;;;;;;;;;5038053;28;20148;-83
2022/01/10 07:58:51;;;;;;;145.02;17.05;;;;;;;;;;5052492;28;20143;-83
2022/01/10 08:01:19;;;;;;;194.50;21.83;;;;;;;;;;5056338;28;20045;-81
2022/01/10 08:03:50;;;;;;;141.90;22.52;;;-2.00;99.90;;;;;;5036402;28;20270;-79
2022/01/10 08:06:17;;;;;;;133.70;19.13;;;;;;;;;;5052374;28;20033;-80
2022/01/10 08:08:43;;;;;;;116.40;17.20;;;;;;;;;;5052024;28;20029;-81
2022/01/10 08:11:09;;;;;;;122.88;16.67;;;;;;;;;;5040615;28;20033;-80
2022/01/10 08:13:36;;;;;;;193.18;26.33;;;-2.30;73.30;;;;;;5055188;28;20107;-81
2022/01/10 08:16:02;;;;;;;304.25;30.48;;;;;;;;;;5055142;28;20293;-81
2022/01/10 08:18:30;;;;;;;243.15;29.77;;;;;;;;;;5034483;28;20026;-81
2022/01/10 08:20:57;;;;;;;218.25;24.88;;;;;;;;;;5034476;28;20039;-81
2022/01/10 08:23:23;;;;;;;148.88;22.15;;;;;;;;;;5051348;28;20063;-81
2022/01/10 08:25:49;;;;;;;68.22;12.52;;;;;;;;;;5036534;28;20374;-81
2022/01/10 08:28:15;;;;;;;38.88;9.15;;;;;;;;;;5050050;28;20037;-81
2022/01/10 08:30:42;;;;;;;8.02;4.28;;;;;;;;;;5035490;28;20037;-81
2022/01/10 08:33:08;;;;;;;5.25;3.95;;;;;;;;;;5035523;28;20391;-81
2022/01/10 08:35:34;;;;;;;26.17;7.72;;;;;;;;;;5040117;28;20282;-81
2022/01/10 08:38:00;;;;;;;40.65;10.68;;;;;;;;;;5054071;28;20025;-81
2022/01/10 08:40:27;;;;;;;22.30;9.68;;;-1.30;99.90;;;;;;5053435;28;20096;-81
2022/01/10 08:42:53;;;;;;;25.92;9.07;;;;;;;;;;5050979;28;20045;-81
2022/01/10 08:45:19;;;;;;;61.83;16.58;;;;;;;;;;5038617;28;20035;-81
2022/01/10 08:47:46;;;;;;;34.03;10.85;;;;;;;;;;5038151;28;20063;-81
2022/01/10 08:50:13;;;;;;;42.53;10.82;;;;;;;;;;5035706;28;20314;-81
2022/01/10 08:52:40;;;;;;;104.05;19.70;;;;;;;;;;5039487;28;20028;-81
2022/01/10 08:55:08;;;;;;;60.45;14.98;;;-0.60;1.00;;;;;;5053444;28;20160;-81
2022/01/10 08:57:35;;;;;;;27.17;8.70;;;-0.60;2.10;;;;;;5048486;28;20041;-80
2022/01/10 09:00:02;;;;;;;105.88;18.92;;;;;;;;;;5055619;28;20049;-81
2022/01/10 09:02:28;;;;;;;26.23;6.32;;;;;;;;;;5052397;28;20026;-81
2022/01/10 09:04:54;;;;;;;46.08;9.48;;;;;;;;;;5054739;28;20064;-79
2022/01/10 09:07:21;;;;;;;119.28;23.40;;;;;;;;;;5038313;28;20334;-79
2022/01/10 09:09:47;;;;;;;14.35;4.53;;;;;;;;;;5054122;28;20047;-80
2022/01/10 09:12:13;;;;;;;70.07;14.20;;;0.10;99.90;;;;;;5050146;28;20290;-79
2022/01/10 09:14:39;;;;;;;116.93;21.15;;;;;;;;;;5056237;28;20076;-80
2022/01/10 09:17:06;;;;;;;147.13;24.23;;;0.30;1.00;;;;;;5036935;28;20037;-80
2022/01/10 09:19:32;;;;;;;123.28;24.52;;;;;;;;;;5036415;28;20022;-80
2022/01/10 09:21:58;;;;;;;128.52;23.17;;;;;;;;;;5036862;28;20067;-79
2022/01/10 09:24:24;;;;;;;30.70;7.65;;;;;;;;;;5039030;28;20036;-80
2022/01/10 09:26:50;;;;;;;18.23;5.88;;;;;;;;;;5051843;28;20036;-80
2022/01/10 09:29:16;;;;;;;37.60;9.30;;;;;;;;;;5055560;28;20029;-80
2022/01/10 09:31:43;;;;;;;39.97;7.97;;;;;;;;;;5049193;28;20075;-80
2022/01/10 09:34:10;;;;;;;42.05;10.25;;;;;;;;;;5051169;28;20025;-80
2022/01/10 09:36:36;;;;;;;259.08;32.15;;;;;;;;;;5037268;28;20121;-80
2022/01/10 09:39:03;;;;;;;121.85;24.90;;;;;;;;;;5052831;28;20052;-80
2022/01/10 09:41:29;;;;;;;42.22;13.93;;;;;;;;;;5051148;28;20037;-80
2022/01/10 09:43:57;;;;;;;63.55;20.48;;;;;;;;;;5055206;28;20040;-80
2022/01/10 09:46:25;;;;;;;34.75;15.68;;;;;;;;;;5055362;28;20044;-80
2022/01/10 09:48:51;;;;;;;42.17;14.60;;;;;;;;;;5052429;28;20108;-80
2022/01/10 09:51:17;;;;;;;62.08;24.25;;;;;;;;;;5054778;28;20039;-80
2022/01/10 09:53:43;;;;;;;37.08;15.25;;;;;;;;;;5049964;28;20049;-80
2022/01/10 09:56:10;;;;;;;23.65;12.10;;;;;;;;;;5050129;28;20045;-80
2022/01/10 09:58:36;;;;;;;24.40;12.32;;;;;;;;;;5036882;28;20057;-80
2022/01/10 10:01:03;;;;;;;30.60;13.93;;;;;;;;;;5035569;28;20041;-79
2022/01/10 10:03:29;;;;;;;28.88;14.20;;;;;;;;;;5055517;28;20040;-80
2022/01/10 10:05:56;;;;;;;28.33;13.95;;;;;;;;;;5052963;28;20041;-80
2022/01/10 10:08:24;;;;;;;32.15;14.85;;;;;;;;;;5026203;28;20060;-80
2022/01/10 10:10:51;;;;;;;23.73;11.45;;;;;;;;;;5046707;28;20075;-80
2022/01/10 10:13:17;;;;;;;29.02;15.93;;;;;;;;;;5053031;28;20154;-80
2022/01/10 10:15:45;;;;;;;13.82;8.10;;;;;;;;;;5052101;28;20093;-80
2022/01/10 10:18:11;;;;;;;22.35;12.07;;;;;;;;;;5052987;28;20052;-80
2022/01/10 10:20:41;;;;;;;24.27;11.18;;;4.10;99.90;;;;;;5048830;28;20217;-81
2022/01/10 10:23:13;;;;;;;21.30;13.10;;;4.60;99.90;;;;;;5054443;28;20052;-81
2022/01/10 10:25:45;;;;;;;19.75;10.77;;;;;;;;;;5046808;28;20037;-80
2022/01/10 10:28:13;;;;;;;21.58;9.95;;;;;;;;;;5039545;28;20054;-80
2022/01/10 10:30:39;;;;;;;12.82;8.40;;;;;;;;;;5038037;28;20057;-80
2022/01/10 10:33:23;;;;;;;16.77;9.00;;;6.10;99.90;;;;;;5058352;28;20033;-79
2022/01/10 10:36:03;;;;;;;24.50;12.32;;;;;;;;;;5036482;28;20064;-79
2022/01/10 10:38:30;;;;;;;24.40;10.65;;;;;;;;;;5053621;28;20305;-80
2022/01/10 10:41:00;;;;;;;24.75;11.50;;;;;;;;;;5053829;28;20266;-80
2022/01/10 10:43:26;;;;;;;27.88;13.93;;;;;;;;;;5056233;28;20028;-80
2022/01/10 10:45:52;;;;;;;34.72;17.63;;;;;;;;;;5057349;28;20507;-80
2022/01/10 10:48:18;;;;;;;27.75;16.40;;;;;;;;;;5056229;28;20104;-80
2022/01/10 10:50:47;;;;;;;11.00;6.97;;;;;;;;;;5053333;28;20044;-80
2022/01/10 10:53:14;;;;;;;22.40;10.98;;;;;;;;;;5053424;28;20033;-80
2022/01/10 10:55:41;;;;;;;20.58;12.98;;;;;;;;;;5037007;28;20036;-81
2022/01/10 10:58:08;;;;;;;27.52;15.02;;;;;;;;;;5037263;28;20031;-81
2022/01/10 11:00:35;;;;;;;22.40;11.85;;;;;;;;;;5056579;28;20033;-80
2022/01/10 11:03:01;;;;;;;14.13;8.57;;;;;;;;;;5056100;28;20030;-84
2022/01/10 11:05:29;;;;;;;25.02;14.65;;;;;;;;;;5054869;28;20069;-86
2022/01/10 11:07:55;;;;;;;19.05;11.60;;;;;;;;;;5039938;28;20179;-85
2022/01/10 11:10:24;;;;;;;19.13;11.57;;;;;;;;;;5052912;28;20098;-86
2022/01/10 11:12:53;;;;;;;25.30;13.75;;;;;;;;;;5038531;28;20562;-86
2022/01/10 11:15:20;;;;;;;22.77;14.48;;;;;;;;;;5054729;28;20037;-87
2022/01/10 11:17:47;;;;;;;28.52;16.65;;;;;;;;;;5037107;28;20028;-86
2022/01/10 11:20:18;;;;;;;20.27;13.10;;;;;;;;;;5056223;28;20045;-86
2022/01/10 11:23:02;;;;;;;19.95;11.25;;;;;;;;;;5036465;28;20052;-82
2022/01/10 11:25:29;;;;;;;19.50;12.07;;;;;;;;;;5054125;28;20231;-85
2022/01/10 11:27:57;;;;;;;21.73;14.52;;;;;;;;;;5057160;28;20091;-84
2022/01/10 11:30:28;;;;;;;32.60;13.75;;;;;;;;;;5039849;28;20040;-84
2022/01/10 11:32:57;;;;;;;22.98;11.95;;;;;;;;;;5050334;28;20118;-85
2022/01/10 11:35:28;;;;;;;29.73;16.65;;;8.60;99.90;;;;;;5049628;28;20049;-85
2022/01/10 11:37:54;;;;;;;25.40;17.05;;;;;;;;;;5055657;28;20089;-84
2022/01/10 11:40:21;;;;;;;31.90;17.35;;;;;;;;;;5031389;28;20317;-85
2022/01/10 11:42:52;;;;;;;27.33;15.27;;;;;;;;;;5052291;28;20144;-84
2022/01/10 11:45:19;;;;;;;15.95;7.88;;;;;;;;;;5045596;28;20302;-86
2022/01/10 11:48:06;;;;;;;28.98;12.65;;;8.60;99.90;;;;;;5046403;28;20337;-85
2022/01/10 11:50:32;;;;;;;26.42;15.65;;;;;;;;;;5051510;28;20119;-86
2022/01/10 11:53:02;;;;;;;22.08;13.65;;;;;;;;;;5059691;28;20051;-87
2022/01/10 11:55:52;;;;;;;22.40;10.52;;;;;;;;;;5055728;28;20198;-86
2022/01/10 11:58:19;;;;;;;24.15;13.98;;;;;;;;;;5048841;28;20037;-83
2022/01/10 12:00:45;;;;;;;17.20;10.60;;;;;;;;;;5037806;28;20040;-81
2022/01/10 12:03:11;;;;;;;18.75;10.80;;;;;;;;;;5041095;28;20267;-83
2022/01/10 12:05:37;;;;;;;9.30;7.22;;;;;;;;;;5057046;28;20064;-84
2022/01/10 12:08:04;;;;;;;10.95;7.07;;;;;;;;;;5052338;28;20060;-85
2022/01/10 12:10:31;;;;;;;23.63;12.85;;;;;;;;;;5032328;28;20033;-84
2022/01/10 12:13:03;;;;;;;30.08;13.70;;;;;;;;;;5034205;28;20065;-83
2022/01/10 12:15:33;;;;;;;9.40;6.13;;;;;;;;;;5051192;28;20074;-84
2022/01/10 12:18:00;;;;;;;15.48;7.47;;;;;;;;;;5051410;28;20113;-84
2022/01/10 12:20:26;;;;;;;28.40;15.15;;;;;;;;;;5049137;28;20052;-84
2022/01/10 12:22:53;;;;;;;20.00;12.57;;;;;;;;;;5033079;28;20043;-84
2022/01/10 12:25:19;;;;;;;23.23;10.95;;;;;;;;;;5032409;28;20261;-83
2022/01/10 12:27:46;;;;;;;30.77;16.50;;;;;;;;;;5048591;28;20351;-82
2022/01/10 12:30:13;;;;;;;23.58;12.70;;;;;;;;;;5048055;28;20029;-82
2022/01/10 12:32:39;;;;;;;18.83;10.73;;;;;;;;;;5049384;28;20316;-83
2022/01/10 12:35:06;;;;;;;30.02;15.25;;;;;;;;;;5050171;28;20279;-82
2022/01/10 12:37:32;;;;;;;36.38;17.15;;;;;;;;;;5031648;28;20306;-82
2022/01/10 12:39:58;;;;;;;30.45;13.70;;;;;;;;;;5052409;28;20028;-83
2022/01/10 12:42:27;;;;;;;25.27;13.23;;;9.60;99.90;;;;;;5051339;28;20036;-82
2022/01/10 12:44:54;;;;;;;27.88;16.73;;;;;;;;;;5052318;28;20045;-82
2022/01/10 12:47:20;;;;;;;20.38;11.10;;;;;;;;;;5035577;28;20103;-83
2022/01/10 12:49:50;;;;;;;19.65;10.13;;;;;;;;;;5054090;28;20036;-82
2022/01/10 12:52:16;;;;;;;10.00;6.15;;;;;;;;;;5045719;28;20045;-82
2022/01/10 12:54:42;;;;;;;14.73;7.88;;;;;;;;;;5038614;28;20181;-82
2022/01/10 12:57:08;;;;;;;27.60;13.85;;;;;;;;;;5050472;28;20183;-83
2022/01/10 12:59:36;;;;;;;12.75;8.95;;;;;;;;;;5053436;28;20028;-85
2022/01/10 13:02:03;;;;;;;19.15;9.80;;;;;;;;;;5032172;28;20040;-85
2022/01/10 13:04:31;;;;;;;23.75;12.70;;;;;;;;;;5050674;28;20074;-85
2022/01/10 13:06:58;;;;;;;11.90;6.50;;;;;;;;;;5047188;28;20104;-84
2022/01/10 13:09:27;;;;;;;23.40;10.63;;;8.20;99.90;;;;;;5055701;28;20040;-85
2022/01/10 13:12:12;;;;;;;16.23;8.15;;;;;;;;;;5033969;28;20102;-85
2022/01/10 13:14:40;;;;;;;25.00;13.80;;;;;;;;;;5053205;28;20041;-85
2022/01/10 13:17:10;;;;;;;22.50;11.70;;;;;;;;;;5052112;28;20221;-85
2022/01/10 13:19:44;;;;;;;21.13;8.02;;;;;;;;;;5053583;28;20254;-85
2022/01/10 13:22:13;;;;;;;18.60;9.32;;;;;;;;;;5056357;28;20029;-85
2022/01/10 13:24:53;;;;;;;19.95;11.27;;;;;;;;;;5036840;28;20343;-85
2022/01/10 13:27:24;;;;;;;15.18;8.57;;;;;;;;;;5052941;28;20025;-85
2022/01/10 13:29:52;;;;;;;14.80;8.57;;;8.60;99.90;;;;;;5054707;28;20111;-84
2022/01/10 13:32:32;;;;;;;23.75;12.20;;;;;;;;;;5057222;28;20108;-81
2022/01/10 13:35:02;;;;;;;26.58;11.80;;;8.70;99.90;;;;;;5053335;28;20024;-84
2022/01/10 13:37:38;;;;;;;29.40;13.68;;;;;;;;;;5050454;28;20041;-81
2022/01/10 13:40:06;;;;;;;20.20;10.75;;;;;;;;;;5033341;28;20277;-81
2022/01/10 13:42:38;;;;;;;29.55;14.63;;;8.70;99.90;;;;;;5031907;28;20047;-83
2022/01/10 13:45:04;;;;;;;24.35;11.60;;;;;;;;;;5034913;28;20033;-83
2022/01/10 13:47:46;;;;;;;18.30;9.18;;;;;;;;;;5050601;28;20056;-83
2022/01/10 13:50:20;;;;;;;20.80;12.02;;;;;;;;;;5051963;28;20075;-82
2022/01/10 13:53:00;;;;;;;18.80;8.38;;;8.60;99.90;;;;;;5051581;28;20248;-82
2022/01/10 13:55:31;;;;;;;24.75;11.80;;;;;;;;;;5035038;28;20025;-82
2022/01/10 13:57:57;;;;;;;28.02;10.80;;;;;;;;;;5035568;28;20024;-82
2022/01/10 14:00:24;;;;;;;23.08;13.70;;;;;;;;;;5053692;28;20068;-82
2022/01/10 14:02:52;;;;;;;23.85;12.60;;;;;;;;;;5053568;28;20033;-90
2022/01/10 14:05:28;;;;;;;14.77;6.50;;;;;;;;;;5054111;28;20029;-87
2022/01/10 14:07:55;;;;;;;21.88;12.30;;;;;;;;;;5053170;28;20037;-88
2022/01/10 14:10:24;;;;;;;14.45;8.95;;;;;;;;;;5050786;28;20047;-87
2022/01/10 14:12:51;;;;;;;18.25;9.93;;;7.90;1.00;;;;;;5039131;28;20041;-88
2022/01/10 14:15:28;;;;;;;25.52;11.95;;;;;;;;;;5035960;28;20396;-87
2022/01/10 14:17:55;;;;;;;26.08;15.23;;;;;;;;;;5049365;28;20029;-86
2022/01/10 14:20:23;;;;;;;31.73;15.48;;;;;;;;;;5033665;28;20041;-86
2022/01/10 14:22:50;;;;;;;20.50;11.10;;;;;;;;;;5054512;28;20029;-87
2022/01/10 14:25:19;;;;;;;18.20;9.60;;;;;;;;;;5035073;28;20025;-87